Airfield :
LOGIN :

Register | Disclaimer

   EN    FR    IT 

 










Legend :    VFR   Marginal VFR   IFR   Intensive IFR   Very Intensive IFR
Visi :
Ceiling :
>= 8 km
>= 3000ft
5 to 8 km
1000 to 3000 ft
1500m to 5 km
500 to 1000 ft
800 to 1500m
200 to 500 ft
< 800m
< 200 ft
Symbols :   Thunderstorms  Fog  Heavy snow  Heavy precipitations  Wind > 20 kt
SIGMETs :     Misc.  Thunderstorms  Icing  Turbulence  Mountain Waves  Volcanic Ashes






- Airport Elevation : 587 ft
- IATA code : XCR


LFOK - Chalons Vatry

CURRENT METAR :
  • 300930Z AUTO 12003KT 070V200 9999 FEW008 13/09 Q1012 NOSIG

EXPIRED METARs :
  • 300900Z AUTO VRB03KT 9000 FEW007 11/09 Q1012 NOSIG
  • 300830Z AUTO VRB03KT 9000 NSC 10/09 Q1012 NOSIG
  • 300800Z AUTO VRB03KT 6000 NSC 08/08 Q1012 NOSIG
  • 300730Z AUTO 17003KT 2500 BR FEW004 06/06 Q1012 BECMG 9999 NSW
  • 300700Z AUTO 19002KT 1300 0600 R10/1300U R28/4300D BCFG FEW002 04/04 Q1012 BECMG 9999 NSW

TAF TAF LFOK
Valid from the 30 at 06:00 until the 01 at 06:00 UTC


300500Z 3006/0106 VRB02KT CAVOK
TEMPO 3006/3007 0400 FG
BECMG 3013/3015 20012KT
BECMG 0101/0103 19020G30KT RA BKN013 OVC025
TEMPO 0103/0106 3000 BKN007 OVC013



MET'MAP, your aeronautical weather chart ! - Copyright ORBIFLY December 2007 - Disclaimer

ORBIFLY MET'MAP TEAM :

Programming & Development : Alexandra Zaïnal
Original concept : Baudouin d'Aumeries
Technical & hardware support : Manuel Goepfert
Assistance : Marc-Olivier Méhu




SOURCES & CREDITS :

   NOAA